createdAt,value
2022-08-26T00:01:54.921Z,96196.69
2022-08-26T00:04:23.705Z,96190.25
2022-08-26T00:06:51.970Z,96191.47
2022-08-26T00:09:19.754Z,96186.44
2022-08-26T00:11:47.804Z,96192.53
2022-08-26T00:14:17.058Z,96182.47
2022-08-26T00:16:47.781Z,96186.41
2022-08-26T00:19:18.023Z,96184.72
2022-08-26T00:21:46.315Z,96184.06
2022-08-26T00:24:16.857Z,96187.16
2022-08-26T00:26:45.013Z,96176.13
2022-08-26T00:29:13.256Z,96185.25
2022-08-26T00:31:41.379Z,96183.13
2022-08-26T00:34:11.317Z,96181.59
2022-08-26T00:36:41.169Z,96185.16
2022-08-26T00:39:09.205Z,96187.38
2022-08-26T00:41:38.530Z,96174.78
2022-08-26T00:44:07.939Z,96183.44
2022-08-26T00:46:46.631Z,96193.84
2022-08-26T00:49:19.163Z,96182.03
2022-08-26T00:51:54.968Z,96183.19
2022-08-26T00:54:28.194Z,96182.19
2022-08-26T00:56:59.993Z,96186.34
2022-08-26T00:59:29.627Z,96191.50
2022-08-26T01:02:02.700Z,96179.91
2022-08-26T01:04:32.428Z,96185.31
2022-08-26T01:07:02.748Z,96195.16
2022-08-26T01:09:31.101Z,96194.41
2022-08-26T01:12:01.712Z,96196.94
2022-08-26T01:14:33.303Z,96185.50
2022-08-26T01:17:05.105Z,96185.38
2022-08-26T01:19:37.724Z,96193.06
2022-08-26T01:22:13.552Z,96183.31
2022-08-26T01:24:43.714Z,96188.25
2022-08-26T01:27:15.454Z,96196.22
2022-08-26T01:29:45.970Z,96192.09
2022-08-26T01:32:19.314Z,96194.31
2022-08-26T01:34:48.978Z,96200.75
2022-08-26T01:37:20.508Z,96196.03
2022-08-26T01:39:53.684Z,96189.56
2022-08-26T01:42:24.465Z,96190.56
2022-08-26T01:44:57.713Z,96190.56
2022-08-26T01:47:28.119Z,96189.03
2022-08-26T01:50:00.851Z,96199.97
2022-08-26T01:52:34.227Z,96200.53
2022-08-26T01:55:04.881Z,96198.00
2022-08-26T01:57:33.225Z,96200.38
2022-08-26T02:00:04.038Z,96206.47
2022-08-26T02:02:32.669Z,96209.50
2022-08-26T02:05:04.951Z,96188.38
2022-08-26T02:07:33.841Z,96207.50
2022-08-26T02:10:04.494Z,96212.09
2022-08-26T02:12:33.510Z,96207.72
2022-08-26T02:15:05.581Z,96208.28
2022-08-26T02:17:38.698Z,96202.38
2022-08-26T02:20:13.339Z,96203.03
2022-08-26T02:22:45.250Z,96205.41
2022-08-26T02:25:19.566Z,96208.38
2022-08-26T02:27:48.608Z,96211.31
2022-08-26T02:30:19.632Z,96209.72
2022-08-26T02:32:49.570Z,96186.19
2022-08-26T02:35:20.309Z,96191.84
2022-08-26T02:37:49.511Z,96200.53
2022-08-26T02:40:22.460Z,96197.34
2022-08-26T02:42:50.428Z,96198.88
2022-08-26T02:45:23.824Z,96200.03
2022-08-26T02:47:52.562Z,96204.41
2022-08-26T02:50:22.205Z,96196.00
2022-08-26T02:52:50.785Z,96195.38
2022-08-26T02:55:20.130Z,96200.00
2022-08-26T02:57:47.950Z,96200.38
2022-08-26T03:00:17.243Z,96199.31
2022-08-26T03:02:45.104Z,96201.47
2022-08-26T03:05:13.903Z,96192.34
2022-08-26T03:07:43.696Z,96206.13
2022-08-26T03:10:13.567Z,96176.56
2022-08-26T03:12:47.458Z,96179.88
2022-08-26T03:15:18.539Z,96200.53
2022-08-26T03:17:47.451Z,96193.53
2022-08-26T03:20:17.318Z,96182.19
2022-08-26T03:22:46.356Z,96188.25
2022-08-26T03:25:17.394Z,96186.03
2022-08-26T03:27:46.941Z,96191.44
2022-08-26T03:30:34.703Z,96192.78
2022-08-26T03:33:02.906Z,96186.09
2022-08-26T03:35:31.954Z,96189.28
2022-08-26T03:38:00.505Z,96188.50
2022-08-26T03:40:29.931Z,96187.72
2022-08-26T03:42:59.013Z,96194.19
2022-08-26T03:45:27.844Z,96198.94
2022-08-26T03:47:55.678Z,96190.34
2022-08-26T03:50:26.274Z,96188.75
2022-08-26T03:52:56.591Z,96200.63
2022-08-26T03:55:26.970Z,96193.09
2022-08-26T03:57:55.792Z,96195.06
2022-08-26T04:00:25.492Z,96198.19
2022-08-26T04:02:53.719Z,96200.84
2022-08-26T04:05:23.012Z,96202.38
2022-08-26T04:07:51.197Z,96199.09
2022-08-26T04:10:22.111Z,96195.25
2022-08-26T04:12:56.577Z,96195.22
2022-08-26T04:15:29.069Z,96202.69
2022-08-26T04:17:57.691Z,96203.34
2022-08-26T04:20:25.721Z,96201.66
2022-08-26T04:22:53.937Z,96195.53
2022-08-26T04:25:22.467Z,96206.50
2022-08-26T04:27:52.046Z,96210.84
2022-08-26T04:30:20.305Z,96203.16
2022-08-26T04:32:50.305Z,96209.56
2022-08-26T04:35:18.570Z,96203.19
2022-08-26T04:37:50.409Z,96204.03
2022-08-26T04:40:19.681Z,96202.38
2022-08-26T04:42:47.685Z,96202.16
2022-08-26T04:45:16.808Z,96191.91
2022-08-26T04:47:45.827Z,96199.84
2022-08-26T04:50:16.774Z,96203.59
2022-08-26T04:52:45.818Z,96204.63
2022-08-26T04:55:13.813Z,96204.88
2022-08-26T04:57:41.905Z,96205.06
2022-08-26T05:00:11.974Z,96209.38
2022-08-26T05:02:40.857Z,96215.09
2022-08-26T05:05:09.651Z,96210.56
2022-08-26T05:07:39.005Z,96224.88
2022-08-26T05:10:09.530Z,96218.28
2022-08-26T05:12:38.542Z,96222.56
2022-08-26T05:15:07.752Z,96218.25
2022-08-26T05:17:35.503Z,96216.84
2022-08-26T05:20:04.316Z,96217.28
2022-08-26T05:22:32.170Z,96213.63
2022-08-26T05:25:01.762Z,96219.22
2022-08-26T05:27:29.649Z,96216.91
2022-08-26T05:29:58.762Z,96216.06
2022-08-26T05:32:27.438Z,96217.25
2022-08-26T05:34:57.093Z,96222.56
2022-08-26T05:37:26.346Z,96220.31
2022-08-26T05:39:54.133Z,96216.63
2022-08-26T05:42:23.273Z,96222.41
2022-08-26T05:44:56.060Z,96220.31
2022-08-26T05:47:24.620Z,96220.44
2022-08-26T05:49:52.382Z,96223.47
2022-08-26T05:52:21.060Z,96227.19
2022-08-26T05:54:52.640Z,96226.44
2022-08-26T05:57:20.330Z,96222.09
2022-08-26T05:59:52.703Z,96222.16
2022-08-26T06:02:20.542Z,96232.28
2022-08-26T06:04:48.408Z,96238.00
2022-08-26T06:07:16.925Z,96232.69
2022-08-26T06:09:46.285Z,96234.56
2022-08-26T06:12:14.041Z,96239.78
2022-08-26T06:14:42.863Z,96237.16
2022-08-26T06:17:11.990Z,96237.09
2022-08-26T06:19:41.358Z,96243.53
2022-08-26T06:22:29.195Z,96247.81
2022-08-26T06:25:14.175Z,96248.91
2022-08-26T06:27:41.934Z,96253.28
2022-08-26T06:30:10.685Z,96254.47
2022-08-26T06:32:39.739Z,96256.94
2022-08-26T06:35:11.970Z,96246.06
2022-08-26T06:37:40.394Z,96255.16
2022-08-26T06:40:10.137Z,96252.69
2022-08-26T06:42:39.543Z,96262.25
2022-08-26T06:45:08.592Z,96265.22
2022-08-26T06:47:38.804Z,96258.47
2022-08-26T06:50:07.817Z,96265.94
2022-08-26T06:52:35.582Z,96267.38
2022-08-26T06:55:03.574Z,96256.94
2022-08-26T06:57:32.871Z,96263.31
2022-08-26T07:00:02.974Z,96265.81
2022-08-26T07:02:31.800Z,96260.72
2022-08-26T07:05:01.027Z,96264.31
2022-08-26T07:07:29.506Z,96261.84
2022-08-26T07:09:57.597Z,96259.63
2022-08-26T07:12:26.024Z,96259.97
2022-08-26T07:14:54.020Z,96262.94
2022-08-26T07:17:21.743Z,96263.00
2022-08-26T07:19:53.582Z,96268.19
2022-08-26T07:22:22.780Z,96261.53
2022-08-26T07:24:52.122Z,96264.47
2022-08-26T07:27:19.786Z,96261.75
2022-08-26T07:29:48.736Z,96262.81
2022-08-26T07:32:17.302Z,96265.38
2022-08-26T07:34:46.784Z,96244.28
2022-08-26T07:37:14.805Z,96256.28
2022-08-26T07:39:44.496Z,96266.94
2022-08-26T07:42:14.132Z,96259.78
2022-08-26T07:44:42.806Z,96261.91
2022-08-26T07:47:25.157Z,96251.69
2022-08-26T07:49:55.579Z,96264.66
2022-08-26T07:52:26.761Z,96265.75
2022-08-26T07:54:58.051Z,96266.28
2022-08-26T07:57:26.215Z,96267.75
2022-08-26T07:59:55.183Z,96271.31
2022-08-26T08:02:24.984Z,96256.13
2022-08-26T08:04:53.589Z,96263.84
2022-08-26T08:07:21.366Z,96260.63
2022-08-26T08:10:11.410Z,96258.91
2022-08-26T08:12:39.509Z,96264.72
2022-08-26T08:15:09.025Z,96264.69
2022-08-26T08:17:37.784Z,96263.50
2022-08-26T08:20:07.292Z,96258.22
2022-08-26T08:22:35.454Z,96258.44
2022-08-26T08:25:06.244Z,96254.28
2022-08-26T08:27:37.892Z,96255.25
2022-08-26T08:30:07.573Z,96242.84
2022-08-26T08:32:38.195Z,96243.47
2022-08-26T08:35:10.718Z,96249.41
2022-08-26T08:37:38.947Z,96241.63
2022-08-26T08:40:08.622Z,96255.00
2022-08-26T08:42:45.787Z,96244.22
2022-08-26T08:45:18.899Z,96244.16
2022-08-26T08:47:51.492Z,96248.59
2022-08-26T08:50:27.049Z,96254.44
2022-08-26T08:53:12.156Z,96250.19
2022-08-26T08:55:51.350Z,96246.19
2022-08-26T08:58:25.693Z,96239.66
2022-08-26T09:01:01.593Z,96248.28
2022-08-26T09:03:44.387Z,96247.50
2022-08-26T09:06:17.358Z,96244.41
2022-08-26T09:08:50.055Z,96244.25
2022-08-26T09:11:20.038Z,96243.09
2022-08-26T09:13:53.788Z,96253.97
2022-08-26T09:16:27.885Z,96248.41
2022-08-26T09:19:05.017Z,96232.63
2022-08-26T09:21:33.708Z,96244.06
2022-08-26T09:24:02.024Z,96243.03
2022-08-26T09:26:42.383Z,96244.53
2022-08-26T09:32:16.303Z,96245.19
2022-08-26T09:34:55.559Z,96245.44
2022-08-26T09:37:36.542Z,96237.66
2022-08-26T09:40:27.030Z,96238.38
2022-08-26T09:43:11.055Z,96240.44
2022-08-26T09:45:49.936Z,96233.28
2022-08-26T09:48:27.842Z,96235.22
2022-08-26T09:50:57.618Z,96235.50
2022-08-26T09:53:30.243Z,96238.13
2022-08-26T09:56:17.624Z,96223.72
2022-08-26T09:58:48.217Z,96227.78
2022-08-26T10:01:30.012Z,96226.97
2022-08-26T10:04:07.363Z,96214.06
2022-08-26T10:06:39.961Z,96214.41
2022-08-26T10:09:09.813Z,96215.66
2022-08-26T10:11:43.930Z,96211.38
2022-08-26T10:14:16.992Z,96203.19
2022-08-26T10:16:51.874Z,96203.91
2022-08-26T10:19:29.189Z,96189.53
2022-08-26T10:22:16.416Z,96196.25
2022-08-26T10:24:49.835Z,96188.75
2022-08-26T10:27:28.598Z,96184.78
2022-08-26T10:30:05.171Z,96177.34
2022-08-26T10:32:40.752Z,96179.25
2022-08-26T10:35:13.598Z,96163.94
2022-08-26T10:37:46.575Z,96174.41
2022-08-26T10:40:19.434Z,96173.06
2022-08-26T10:42:54.252Z,96175.06
2022-08-26T10:45:26.807Z,96163.88
2022-08-26T10:48:02.202Z,96170.38
2022-08-26T10:50:34.399Z,96176.50
2022-08-26T10:53:08.766Z,96172.78
2022-08-26T10:55:41.900Z,96168.63
2022-08-26T10:58:42.325Z,96167.47
2022-08-26T11:01:35.797Z,96156.53
2022-08-26T11:04:19.832Z,96164.91
2022-08-26T11:06:50.102Z,96148.66
2022-08-26T11:09:45.795Z,96156.97
2022-08-26T11:12:49.171Z,96150.09
2022-08-26T11:15:50.808Z,96144.88
2022-08-26T11:18:46.974Z,96137.41
2022-08-26T11:21:52.005Z,96144.63
2022-08-26T11:24:56.326Z,96138.53
2022-08-26T11:28:06.536Z,96139.97
2022-08-26T11:30:57.834Z,96135.28
2022-08-26T11:33:59.955Z,96136.44
2022-08-26T11:36:41.823Z,96130.88
2022-08-26T11:39:23.015Z,96128.94
2022-08-26T11:41:53.860Z,96129.25
2022-08-26T11:44:22.290Z,96122.97
2022-08-26T11:46:55.584Z,96120.56
2022-08-26T11:49:24.845Z,96119.75
2022-08-26T11:51:53.111Z,96108.28
2022-08-26T11:54:35.157Z,96107.50
2022-08-26T11:57:11.709Z,96103.50
2022-08-26T11:59:42.462Z,96106.72
2022-08-26T12:02:18.138Z,96101.53
2022-08-26T12:04:49.203Z,96098.88
2022-08-26T12:07:18.536Z,96102.59
2022-08-26T12:09:56.530Z,96091.75
2022-08-26T12:12:30.758Z,96094.44
2022-08-26T12:15:13.824Z,96092.44
2022-08-26T12:17:42.906Z,96093.38
2022-08-26T12:20:31.151Z,96086.19
2022-08-26T12:23:00.755Z,96089.03
2022-08-26T12:25:35.998Z,96084.47
2022-08-26T12:28:06.498Z,96079.81
2022-08-26T12:30:34.374Z,96081.56
2022-08-26T12:33:22.336Z,96074.41
2022-08-26T12:35:56.373Z,96079.03
2022-08-26T12:38:25.829Z,96084.34
2022-08-26T12:40:55.596Z,96069.72
2022-08-26T12:43:43.947Z,96076.44
2022-08-26T12:46:15.509Z,96067.66
2022-08-26T12:48:48.499Z,96064.78
2022-08-26T12:51:24.044Z,96061.06
2022-08-26T12:53:52.765Z,96065.34
2022-08-26T12:56:28.272Z,96065.94
2022-08-26T12:59:05.357Z,96061.13
2022-08-26T13:01:42.903Z,96045.47
2022-08-26T13:04:39.344Z,96052.97
2022-08-26T13:07:15.843Z,96057.31
2022-08-26T13:09:43.629Z,96056.56
2022-08-26T13:12:13.467Z,96049.09
2022-08-26T13:14:41.194Z,96051.69
2022-08-26T13:17:09.048Z,96054.28
2022-08-26T13:19:36.807Z,96048.94
2022-08-26T13:22:06.032Z,96046.41
2022-08-26T13:24:38.016Z,96053.00
2022-08-26T13:27:08.312Z,96022.69
2022-08-26T13:29:37.600Z,96043.63
2022-08-26T13:32:06.606Z,96043.78
2022-08-26T13:34:34.521Z,96048.13
2022-08-26T13:37:02.210Z,96041.72
2022-08-26T13:39:30.334Z,96045.44
2022-08-26T13:41:58.145Z,96042.44
2022-08-26T13:44:25.875Z,96033.88
2022-08-26T13:46:55.168Z,96037.84
2022-08-26T13:49:23.090Z,96032.78
2022-08-26T13:51:50.812Z,96028.66
2022-08-26T13:54:18.521Z,96028.28
2022-08-26T13:56:46.294Z,96018.63
2022-08-26T13:59:14.058Z,96011.41
2022-08-26T14:01:41.775Z,96014.53
2022-08-26T14:04:10.860Z,96018.63
2022-08-26T14:06:38.623Z,96006.56
2022-08-26T14:09:06.451Z,96015.91
2022-08-26T14:11:50.853Z,96007.34
2022-08-26T14:14:21.894Z,96007.78
2022-08-26T14:16:58.874Z,96007.31
2022-08-26T14:19:30.977Z,96004.59
2022-08-26T14:22:01.007Z,96006.66
2022-08-26T14:24:29.172Z,96004.09
2022-08-26T14:26:56.982Z,95997.19
2022-08-26T14:29:27.112Z,96001.25
2022-08-26T14:31:57.797Z,95999.06
2022-08-26T14:34:28.297Z,96003.69
2022-08-26T14:36:57.415Z,95993.91
2022-08-26T14:39:35.676Z,95986.38
2022-08-26T14:42:03.444Z,95982.44
2022-08-26T14:44:34.052Z,95983.84
2022-08-26T14:47:03.846Z,95974.41
2022-08-26T14:49:32.134Z,95971.25
2022-08-26T14:52:01.401Z,95972.81
2022-08-26T14:54:29.343Z,95976.97
2022-08-26T14:57:00.600Z,95975.66
2022-08-26T14:59:31.171Z,95977.75
2022-08-26T15:02:00.428Z,95981.00
2022-08-26T15:04:28.881Z,95988.16
2022-08-26T15:06:59.680Z,95985.38
2022-08-26T15:09:30.337Z,95992.13
2022-08-26T15:11:58.096Z,95988.59
2022-08-26T15:14:27.664Z,95987.22
2022-08-26T15:16:58.127Z,95985.56
2022-08-26T15:19:27.371Z,95990.28
2022-08-26T15:21:55.592Z,95994.09
2022-08-26T15:24:25.837Z,95990.69
2022-08-26T15:26:55.303Z,95991.22
2022-08-26T15:29:24.059Z,96001.75
2022-08-26T15:31:52.172Z,95999.09
2022-08-26T15:34:24.930Z,95997.50
2022-08-26T15:36:52.725Z,95991.00
2022-08-26T15:39:21.020Z,96000.97
2022-08-26T15:41:48.852Z,95998.44
2022-08-26T15:44:18.455Z,96008.28
2022-08-26T15:46:48.144Z,96013.28
2022-08-26T15:49:18.151Z,96034.78
2022-08-26T15:51:48.020Z,96040.50
2022-08-26T15:54:17.708Z,96044.16
2022-08-26T15:56:45.759Z,96044.59
2022-08-26T15:59:17.857Z,96043.88
2022-08-26T16:01:45.796Z,96055.06
2022-08-26T16:04:13.924Z,96057.69
2022-08-26T16:06:43.424Z,96061.38
2022-08-26T16:09:11.622Z,96050.13
2022-08-26T16:11:39.547Z,96058.59
2022-08-26T16:14:07.746Z,96068.84
2022-08-26T16:16:39.230Z,96070.78
2022-08-26T16:19:07.730Z,96068.97
2022-08-26T16:21:36.354Z,96073.53
2022-08-26T16:24:06.403Z,96071.63
2022-08-26T16:26:36.271Z,96073.09
2022-08-26T16:29:08.641Z,96072.84
2022-08-26T16:31:38.712Z,96077.03
2022-08-26T16:34:07.947Z,96074.03
2022-08-26T16:36:36.131Z,96084.81
2022-08-26T16:39:05.155Z,96085.69
2022-08-26T16:41:33.701Z,96085.00
2022-08-26T16:44:02.083Z,96084.22
2022-08-26T16:46:30.011Z,96093.13
2022-08-26T16:49:00.179Z,96090.59
2022-08-26T16:51:29.126Z,96090.84
2022-08-26T16:53:58.651Z,96092.69
2022-08-26T16:56:33.741Z,96097.34
2022-08-26T16:59:02.704Z,96090.97
2022-08-26T17:01:30.619Z,96108.16
2022-08-26T17:03:59.704Z,96105.34
2022-08-26T17:06:27.494Z,96119.56
2022-08-26T17:08:55.180Z,96110.75
2022-08-26T17:11:22.893Z,96111.22
2022-08-26T17:13:50.652Z,96115.22
2022-08-26T17:16:19.158Z,96113.31
2022-08-26T17:18:48.126Z,96106.94
2022-08-26T17:21:17.293Z,96114.94
2022-08-26T17:23:45.922Z,96115.47
2022-08-26T17:26:14.015Z,96128.00
2022-08-26T17:28:41.800Z,96125.09
2022-08-26T17:31:12.045Z,96137.16
2022-08-26T17:33:40.075Z,96148.50
2022-08-26T17:36:09.564Z,96149.13
2022-08-26T17:38:39.654Z,96157.63
2022-08-26T17:41:09.110Z,96160.72
2022-08-26T17:43:37.265Z,96170.50
2022-08-26T17:46:08.227Z,96180.13
2022-08-26T17:48:36.217Z,96179.31
2022-08-26T17:51:08.274Z,96181.91
2022-08-26T17:53:36.097Z,96183.81
2022-08-26T17:56:08.902Z,96186.84
2022-08-26T17:58:37.475Z,96196.97
2022-08-26T18:01:06.118Z,96193.13
2022-08-26T18:03:35.069Z,96185.66
2022-08-26T18:06:04.016Z,96188.06
2022-08-26T18:08:31.718Z,96189.72
2022-08-26T18:10:59.805Z,96205.25
2022-08-26T18:13:28.858Z,96196.25
2022-08-26T18:15:56.631Z,96193.31
2022-08-26T18:18:24.392Z,96207.13
2022-08-26T18:21:01.226Z,96201.31
2022-08-26T18:23:31.466Z,96203.91
2022-08-26T18:25:59.367Z,96198.47
2022-08-26T18:28:28.448Z,96207.03
2022-08-26T18:30:57.050Z,96206.00
2022-08-26T18:33:25.500Z,96217.50
2022-08-26T18:35:53.720Z,96213.31
2022-08-26T18:38:21.395Z,96215.56
2022-08-26T18:40:50.287Z,96224.03
2022-08-26T18:43:18.013Z,96222.78
2022-08-26T18:45:47.283Z,96229.78
2022-08-26T18:48:15.647Z,96236.34
2022-08-26T18:50:47.284Z,96250.31
2022-08-26T18:53:15.742Z,96256.38
2022-08-26T18:55:43.535Z,96258.31
2022-08-26T18:58:11.683Z,96268.66
2022-08-26T19:00:39.626Z,96274.75
2022-08-26T19:03:18.384Z,96272.56
2022-08-26T19:05:46.515Z,96267.16
2022-08-26T19:08:14.320Z,96278.66
2022-08-26T19:10:42.128Z,96286.84
2022-08-26T19:13:10.557Z,96283.66
2022-08-26T19:15:40.162Z,96288.00
2022-08-26T19:18:10.272Z,96291.28
2022-08-26T19:20:43.502Z,96292.13
2022-08-26T19:23:30.969Z,96295.31
2022-08-26T19:26:00.269Z,96284.13
2022-08-26T19:28:28.077Z,96280.63
2022-08-26T19:30:55.827Z,96282.91
2022-08-26T19:33:25.228Z,96289.41
2022-08-26T19:35:53.001Z,96274.50
2022-08-26T19:38:21.148Z,96292.66
2022-08-26T19:40:49.208Z,96288.66
2022-08-26T19:43:16.969Z,96291.53
2022-08-26T19:45:44.731Z,96278.75
2022-08-26T19:48:13.080Z,96272.84
2022-08-26T19:50:42.194Z,96268.66
2022-08-26T19:53:10.275Z,96274.44
2022-08-26T19:55:38.078Z,96266.81
2022-08-26T19:58:06.452Z,96266.31
2022-08-26T20:00:35.692Z,96263.66
2022-08-26T20:03:03.523Z,96261.03
2022-08-26T20:05:31.330Z,96255.38
2022-08-26T20:08:00.403Z,96265.41
2022-08-26T20:10:28.294Z,96265.56
2022-08-26T20:12:56.290Z,96259.13
2022-08-26T20:15:24.661Z,96261.16
2022-08-26T20:17:55.929Z,96271.31
2022-08-26T20:20:41.133Z,96260.59
2022-08-26T20:23:10.552Z,96265.22
2022-08-26T20:25:38.268Z,96274.78
2022-08-26T20:28:06.197Z,96271.72
2022-08-26T20:30:34.005Z,96273.47
2022-08-26T20:33:01.856Z,96276.50
2022-08-26T20:35:29.575Z,96269.16
2022-08-26T20:37:57.301Z,96276.72
2022-08-26T20:40:26.694Z,96274.94
2022-08-26T20:42:54.467Z,96283.06
2022-08-26T20:45:22.263Z,96284.91
2022-08-26T20:47:49.977Z,96279.31
2022-08-26T20:50:17.691Z,96290.78
2022-08-26T20:52:46.317Z,96292.25
2022-08-26T20:55:14.149Z,96292.59
2022-08-26T20:57:43.680Z,96285.28
2022-08-26T21:00:15.208Z,96305.09
2022-08-26T21:02:44.770Z,96305.34
2022-08-26T21:05:12.619Z,96302.47
2022-08-26T21:07:40.394Z,96302.16
2022-08-26T21:10:09.095Z,96314.59
2022-08-26T21:12:37.454Z,96281.63
2022-08-26T21:15:07.547Z,96313.69
2022-08-26T21:17:36.660Z,96314.66
2022-08-26T21:20:05.172Z,96323.09
2022-08-26T21:22:32.862Z,96337.75
2022-08-26T21:25:00.760Z,96331.78
2022-08-26T21:27:28.518Z,96337.00
2022-08-26T21:29:56.870Z,96339.13
2022-08-26T21:32:25.996Z,96352.78
2022-08-26T21:34:56.743Z,96343.03
2022-08-26T21:37:25.148Z,96352.81
2022-08-26T21:39:54.247Z,96351.47
2022-08-26T21:42:22.063Z,96360.81
2022-08-26T21:44:52.789Z,96368.09
2022-08-26T21:47:21.055Z,96367.03
2022-08-26T21:49:50.365Z,96370.25
2022-08-26T21:52:18.226Z,96374.19
2022-08-26T21:54:49.271Z,96367.53
2022-08-26T21:57:17.467Z,96356.50
2022-08-26T21:59:45.345Z,96355.88
2022-08-26T22:02:13.495Z,96348.50
2022-08-26T22:04:44.545Z,96344.13
2022-08-26T22:07:17.066Z,96340.88
2022-08-26T22:09:44.877Z,96336.19
2022-08-26T22:12:13.426Z,96314.81
2022-08-26T22:14:41.178Z,96340.31
2022-08-26T22:17:08.916Z,96345.63
2022-08-26T22:19:41.342Z,96342.19
2022-08-26T22:22:16.278Z,96351.53
2022-08-26T22:24:44.299Z,96349.88
2022-08-26T22:27:12.992Z,96345.81
2022-08-26T22:29:41.182Z,96337.09
2022-08-26T22:32:08.977Z,96334.06
2022-08-26T22:34:36.745Z,96332.19
2022-08-26T22:37:04.718Z,96340.03
2022-08-26T22:39:33.871Z,96343.75
2022-08-26T22:42:03.597Z,96343.03
2022-08-26T22:44:32.862Z,96350.88
2022-08-26T22:47:01.323Z,96356.19
2022-08-26T22:49:29.110Z,96347.44
2022-08-26T22:51:56.902Z,96343.75
2022-08-26T22:54:24.642Z,96341.44
2022-08-26T22:56:53.689Z,96347.66
2022-08-26T22:59:21.416Z,96344.47
2022-08-26T23:01:49.172Z,96339.19
2022-08-26T23:04:16.958Z,96348.09
2022-08-26T23:06:47.841Z,96349.81
2022-08-26T23:09:17.869Z,96349.59
2022-08-26T23:11:47.358Z,96354.69
2022-08-26T23:14:17.482Z,96347.41
2022-08-26T23:16:45.492Z,96350.38
2022-08-26T23:19:15.039Z,96366.75
2022-08-26T23:21:43.493Z,96345.38
2022-08-26T23:24:12.091Z,96338.28
2022-08-26T23:26:41.221Z,96357.22
2022-08-26T23:29:10.749Z,96363.66
2022-08-26T23:31:41.537Z,96354.94
2022-08-26T23:34:26.908Z,96354.97
2022-08-26T23:36:57.935Z,96350.63
2022-08-26T23:39:26.444Z,96353.34
2022-08-26T23:41:54.164Z,96347.94
2022-08-26T23:44:21.968Z,96349.59
2022-08-26T23:46:51.050Z,96340.28
2022-08-26T23:49:18.913Z,96349.53
2022-08-26T23:52:04.244Z,96339.34
2022-08-26T23:54:33.569Z,96337.22
2022-08-26T23:57:01.354Z,96332.78
2022-08-26T23:59:29.169Z,96335.53
